sensor_id;sensor_type;location;lat;lon;timestamp;temperature;humidity
38131;DHT22;23947;51.894;4.622;2023-03-01T00:01:48;0.60;1.40
38131;DHT22;23947;51.894;4.622;2023-03-01T00:04:14;0.60;1.40
38131;DHT22;23947;51.894;4.622;2023-03-01T00:06:40;0.60;1.40
38131;DHT22;23947;51.894;4.622;2023-03-01T00:09:08;0.50;1.40
38131;DHT22;23947;51.894;4.622;2023-03-01T00:11:33;0.50;1.40
38131;DHT22;23947;51.894;4.622;2023-03-01T00:14:01;0.60;1.40
38131;DHT22;23947;51.894;4.622;2023-03-01T00:16:36;0.60;1.40
38131;DHT22;23947;51.894;4.622;2023-03-01T00:19:04;0.50;1.40
38131;DHT22;23947;51.894;4.622;2023-03-01T00:21:29;0.50;1.40
38131;DHT22;23947;51.894;4.622;2023-03-01T00:23:55;0.50;1.40
38131;DHT22;23947;51.894;4.622;2023-03-01T00:26:23;0.60;1.40
38131;DHT22;23947;51.894;4.622;2023-03-01T00:28:49;0.60;1.40
38131;DHT22;23947;51.894;4.622;2023-03-01T00:31:20;0.60;1.40
38131;DHT22;23947;51.894;4.622;2023-03-01T00:33:46;0.60;1.40
38131;DHT22;23947;51.894;4.622;2023-03-01T00:36:14;0.60;1.40
38131;DHT22;23947;51.894;4.622;2023-03-01T00:38:42;0.60;1.40
38131;DHT22;23947;51.894;4.622;2023-03-01T00:41:14;0.60;1.40
38131;DHT22;23947;51.894;4.622;2023-03-01T00:43:40;0.60;1.40
38131;DHT22;23947;51.894;4.622;2023-03-01T00:46:09;0.60;1.40
38131;DHT22;23947;51.894;4.622;2023-03-01T00:48:35;0.60;1.40
38131;DHT22;23947;51.894;4.622;2023-03-01T00:51:08;0.70;1.40
38131;DHT22;23947;51.894;4.622;2023-03-01T00:53:35;0.60;1.40
38131;DHT22;23947;51.894;4.622;2023-03-01T00:56:01;0.60;1.40
38131;DHT22;23947;51.894;4.622;2023-03-01T00:58:27;0.60;1.40
38131;DHT22;23947;51.894;4.622;2023-03-01T01:00:53;0.60;1.40
38131;DHT22;23947;51.894;4.622;2023-03-01T01:03:19;0.60;1.40
38131;DHT22;23947;51.894;4.622;2023-03-01T01:05:44;0.50;1.40
38131;DHT22;23947;51.894;4.622;2023-03-01T01:08:10;0.60;1.40
38131;DHT22;23947;51.894;4.622;2023-03-01T01:10:36;0.50;1.40
38131;DHT22;23947;51.894;4.622;2023-03-01T01:13:02;0.50;1.40
38131;DHT22;23947;51.894;4.622;2023-03-01T01:15:28;0.40;1.40
38131;DHT22;23947;51.894;4.622;2023-03-01T01:17:54;0.30;1.40
38131;DHT22;23947;51.894;4.622;2023-03-01T01:20:20;0.40;1.40
38131;DHT22;23947;51.894;4.622;2023-03-01T01:22:46;0.30;1.40
38131;DHT22;23947;51.894;4.622;2023-03-01T01:25:12;0.40;1.40
38131;DHT22;23947;51.894;4.622;2023-03-01T01:27:37;0.30;1.40
38131;DHT22;23947;51.894;4.622;2023-03-01T01:30:04;0.30;1.40
38131;DHT22;23947;51.894;4.622;2023-03-01T01:32:30;0.20;1.40
38131;DHT22;23947;51.894;4.622;2023-03-01T01:34:56;0.20;1.40
38131;DHT22;23947;51.894;4.622;2023-03-01T01:37:21;0.20;1.40
38131;DHT22;23947;51.894;4.622;2023-03-01T01:39:47;0.20;1.40
38131;DHT22;23947;51.894;4.622;2023-03-01T01:42:17;0.10;1.40
38131;DHT22;23947;51.894;4.622;2023-03-01T01:44:46;0.10;1.40
38131;DHT22;23947;51.894;4.622;2023-03-01T01:47:19;0.10;1.40
38131;DHT22;23947;51.894;4.622;2023-03-01T01:49:52;0.10;1.40
38131;DHT22;23947;51.894;4.622;2023-03-01T01:57:29;0.00;1.40
38131;DHT22;23947;51.894;4.622;2023-03-01T02:00:00;0.00;1.40
38131;DHT22;23947;51.894;4.622;2023-03-01T02:02:28;0.00;1.40
38131;DHT22;23947;51.894;4.622;2023-03-01T02:05:03;0.00;1.40
38131;DHT22;23947;51.894;4.622;2023-03-01T02:07:30;-0.10;1.40
38131;DHT22;23947;51.894;4.622;2023-03-01T02:09:56;0.00;1.40
38131;DHT22;23947;51.894;4.622;2023-03-01T02:12:24;-0.10;1.40
38131;DHT22;23947;51.894;4.622;2023-03-01T02:14:49;-0.10;1.40
38131;DHT22;23947;51.894;4.622;2023-03-01T02:17:17;-0.10;1.40
38131;DHT22;23947;51.894;4.622;2023-03-01T02:22:37;0.00;1.40
38131;DHT22;23947;51.894;4.622;2023-03-01T02:28:08;0.00;1.40
38131;DHT22;23947;51.894;4.622;2023-03-01T02:30:36;0.00;1.40
38131;DHT22;23947;51.894;4.622;2023-03-01T02:33:03;0.00;1.40
38131;DHT22;23947;51.894;4.622;2023-03-01T02:35:31;0.00;1.40
38131;DHT22;23947;51.894;4.622;2023-03-01T02:37:59;0.00;1.40
38131;DHT22;23947;51.894;4.622;2023-03-01T02:40:30;0.00;1.40
38131;DHT22;23947;51.894;4.622;2023-03-01T02:42:58;0.00;1.40
38131;DHT22;23947;51.894;4.622;2023-03-01T02:45:25;0.00;1.40
38131;DHT22;23947;51.894;4.622;2023-03-01T02:47:54;-0.10;1.40
38131;DHT22;23947;51.894;4.622;2023-03-01T02:53:19;-0.10;1.40
38131;DHT22;23947;51.894;4.622;2023-03-01T02:55:42;-0.10;1.40
38131;DHT22;23947;51.894;4.622;2023-03-01T02:58:08;-0.10;1.40
38131;DHT22;23947;51.894;4.622;2023-03-01T03:00:39;-0.10;1.40
38131;DHT22;23947;51.894;4.622;2023-03-01T03:03:13;-0.10;1.40
38131;DHT22;23947;51.894;4.622;2023-03-01T03:05:39;-0.10;1.40
38131;DHT22;23947;51.894;4.622;2023-03-01T03:08:05;0.00;1.40
38131;DHT22;23947;51.894;4.622;2023-03-01T03:10:38;0.00;1.40
38131;DHT22;23947;51.894;4.622;2023-03-01T03:13:10;0.00;1.40
38131;DHT22;23947;51.894;4.622;2023-03-01T03:15:36;0.00;1.40
38131;DHT22;23947;51.894;4.622;2023-03-01T03:18:07;-0.10;1.40
38131;DHT22;23947;51.894;4.622;2023-03-01T03:20:34;-0.10;1.40
38131;DHT22;23947;51.894;4.622;2023-03-01T03:23:00;0.00;1.40
38131;DHT22;23947;51.894;4.622;2023-03-01T03:25:27;0.00;1.40
38131;DHT22;23947;51.894;4.622;2023-03-01T03:27:54;-0.10;1.40
38131;DHT22;23947;51.894;4.622;2023-03-01T03:30:29;-0.10;1.40
38131;DHT22;23947;51.894;4.622;2023-03-01T03:32:55;-0.10;1.40
38131;DHT22;23947;51.894;4.622;2023-03-01T03:35:30;-0.10;1.40
38131;DHT22;23947;51.894;4.622;2023-03-01T03:37:57;-0.10;1.40
38131;DHT22;23947;51.894;4.622;2023-03-01T03:40:34;-0.10;1.40
38131;DHT22;23947;51.894;4.622;2023-03-01T03:43:02;-0.10;1.40
38131;DHT22;23947;51.894;4.622;2023-03-01T03:45:28;-0.10;1.40
38131;DHT22;23947;51.894;4.622;2023-03-01T03:47:54;-0.10;1.40
38131;DHT22;23947;51.894;4.622;2023-03-01T03:50:20;-0.10;1.40
38131;DHT22;23947;51.894;4.622;2023-03-01T03:52:45;-0.20;1.40
38131;DHT22;23947;51.894;4.622;2023-03-01T03:55:12;-0.10;1.40
38131;DHT22;23947;51.894;4.622;2023-03-01T03:57:39;-0.10;1.40
38131;DHT22;23947;51.894;4.622;2023-03-01T04:00:08;-0.10;1.40
38131;DHT22;23947;51.894;4.622;2023-03-01T04:02:41;-0.20;1.40
38131;DHT22;23947;51.894;4.622;2023-03-01T04:05:09;-0.20;1.40
38131;DHT22;23947;51.894;4.622;2023-03-01T04:07:36;-0.10;1.40
38131;DHT22;23947;51.894;4.622;2023-03-01T04:10:07;-0.10;1.40
38131;DHT22;23947;51.894;4.622;2023-03-01T04:12:34;-0.10;1.40
38131;DHT22;23947;51.894;4.622;2023-03-01T04:15:00;-0.10;1.40
38131;DHT22;23947;51.894;4.622;2023-03-01T04:17:26;-0.10;1.40
38131;DHT22;23947;51.894;4.622;2023-03-01T04:19:52;-0.10;1.40
38131;DHT22;23947;51.894;4.622;2023-03-01T04:22:18;-0.20;1.40
38131;DHT22;23947;51.894;4.622;2023-03-01T04:24:44;-0.30;1.40
38131;DHT22;23947;51.894;4.622;2023-03-01T04:27:11;-0.30;1.40
38131;DHT22;23947;51.894;4.622;2023-03-01T04:29:37;-0.30;1.40
38131;DHT22;23947;51.894;4.622;2023-03-01T04:32:02;-0.30;1.40
38131;DHT22;23947;51.894;4.622;2023-03-01T04:34:29;-0.40;1.40
38131;DHT22;23947;51.894;4.622;2023-03-01T04:36:55;-0.50;1.40
38131;DHT22;23947;51.894;4.622;2023-03-01T04:39:21;-0.40;1.40
38131;DHT22;23947;51.894;4.622;2023-03-01T04:41:46;-0.50;1.40
38131;DHT22;23947;51.894;4.622;2023-03-01T04:44:12;-0.50;1.40
38131;DHT22;23947;51.894;4.622;2023-03-01T04:46:38;-0.60;1.40
38131;DHT22;23947;51.894;4.622;2023-03-01T04:49:04;-0.60;1.40
38131;DHT22;23947;51.894;4.622;2023-03-01T04:51:31;-0.60;1.40
38131;DHT22;23947;51.894;4.622;2023-03-01T04:53:58;-0.60;1.40
38131;DHT22;23947;51.894;4.622;2023-03-01T04:56:23;-0.60;1.40
38131;DHT22;23947;51.894;4.622;2023-03-01T04:58:49;-0.60;1.40
38131;DHT22;23947;51.894;4.622;2023-03-01T05:01:17;-0.70;1.40
38131;DHT22;23947;51.894;4.622;2023-03-01T05:03:48;-0.70;1.40
38131;DHT22;23947;51.894;4.622;2023-03-01T05:06:15;-0.70;1.40
38131;DHT22;23947;51.894;4.622;2023-03-01T05:08:42;-0.70;1.40
38131;DHT22;23947;51.894;4.622;2023-03-01T05:11:08;-0.70;1.40
38131;DHT22;23947;51.894;4.622;2023-03-01T05:13:36;-0.70;1.40
38131;DHT22;23947;51.894;4.622;2023-03-01T05:16:03;-0.70;1.40
38131;DHT22;23947;51.894;4.622;2023-03-01T05:18:30;-0.70;1.40
38131;DHT22;23947;51.894;4.622;2023-03-01T05:21:03;-0.80;1.40
38131;DHT22;23947;51.894;4.622;2023-03-01T05:23:33;-0.80;1.40
38131;DHT22;23947;51.894;4.622;2023-03-01T05:26:03;-0.90;1.40
38131;DHT22;23947;51.894;4.622;2023-03-01T05:28:30;-0.90;1.40
38131;DHT22;23947;51.894;4.622;2023-03-01T05:30:57;-0.90;1.40
38131;DHT22;23947;51.894;4.622;2023-03-01T05:33:23;-0.90;1.40
38131;DHT22;23947;51.894;4.622;2023-03-01T05:35:49;-0.80;1.40
38131;DHT22;23947;51.894;4.622;2023-03-01T05:38:16;-0.80;1.40
38131;DHT22;23947;51.894;4.622;2023-03-01T05:40:43;-0.90;1.40
38131;DHT22;23947;51.894;4.622;2023-03-01T05:43:10;-0.90;1.40
38131;DHT22;23947;51.894;4.622;2023-03-01T05:45:37;-0.80;1.40
38131;DHT22;23947;51.894;4.622;2023-03-01T05:48:05;-0.80;1.40
38131;DHT22;23947;51.894;4.622;2023-03-01T05:50:37;-0.80;1.40
38131;DHT22;23947;51.894;4.622;2023-03-01T05:53:05;-0.80;1.40
38131;DHT22;23947;51.894;4.622;2023-03-01T05:55:34;-0.80;1.40
38131;DHT22;23947;51.894;4.622;2023-03-01T05:58:13;-0.80;1.40
38131;DHT22;23947;51.894;4.622;2023-03-01T06:00:42;-0.90;1.40
38131;DHT22;23947;51.894;4.622;2023-03-01T06:03:10;-0.80;1.40
38131;DHT22;23947;51.894;4.622;2023-03-01T06:05:37;-0.80;1.40
38131;DHT22;23947;51.894;4.622;2023-03-01T06:08:03;-0.90;1.40
38131;DHT22;23947;51.894;4.622;2023-03-01T06:10:29;-0.90;1.40
38131;DHT22;23947;51.894;4.622;2023-03-01T06:12:54;-0.90;1.40
38131;DHT22;23947;51.894;4.622;2023-03-01T06:15:21;-0.90;1.40
38131;DHT22;23947;51.894;4.622;2023-03-01T06:17:47;-1.00;1.40
38131;DHT22;23947;51.894;4.622;2023-03-01T06:20:15;-1.00;1.40
38131;DHT22;23947;51.894;4.622;2023-03-01T06:22:42;-1.00;1.40
38131;DHT22;23947;51.894;4.622;2023-03-01T06:25:09;-1.10;1.40
38131;DHT22;23947;51.894;4.622;2023-03-01T06:27:35;-1.20;1.40
38131;DHT22;23947;51.894;4.622;2023-03-01T06:30:02;-1.20;1.40
38131;DHT22;23947;51.894;4.622;2023-03-01T06:32:27;-1.20;1.40
38131;DHT22;23947;51.894;4.622;2023-03-01T06:34:53;-1.20;1.40
38131;DHT22;23947;51.894;4.622;2023-03-01T06:37:19;-1.20;1.40
38131;DHT22;23947;51.894;4.622;2023-03-01T06:39:44;-1.40;1.40
38131;DHT22;23947;51.894;4.622;2023-03-01T06:42:10;-1.40;1.40
38131;DHT22;23947;51.894;4.622;2023-03-01T06:44:36;-1.40;1.40
38131;DHT22;23947;51.894;4.622;2023-03-01T06:47:03;-1.40;1.40
38131;DHT22;23947;51.894;4.622;2023-03-01T06:49:28;-1.40;1.40
38131;DHT22;23947;51.894;4.622;2023-03-01T06:51:54;-1.40;1.40
38131;DHT22;23947;51.894;4.622;2023-03-01T06:54:20;-1.40;1.40
38131;DHT22;23947;51.894;4.622;2023-03-01T06:56:48;-1.40;1.40
38131;DHT22;23947;51.894;4.622;2023-03-01T06:59:13;-1.40;1.40
38131;DHT22;23947;51.894;4.622;2023-03-01T07:01:39;-1.40;1.40
38131;DHT22;23947;51.894;4.622;2023-03-01T07:04:04;-1.30;1.40
38131;DHT22;23947;51.894;4.622;2023-03-01T07:06:30;-1.30;1.40
38131;DHT22;23947;51.894;4.622;2023-03-01T07:08:56;-1.30;1.40
38131;DHT22;23947;51.894;4.622;2023-03-01T07:11:21;-1.20;1.40
38131;DHT22;23947;51.894;4.622;2023-03-01T07:13:48;-1.20;1.40
38131;DHT22;23947;51.894;4.622;2023-03-01T07:16:13;-1.20;1.40
38131;DHT22;23947;51.894;4.622;2023-03-01T07:18:40;-1.10;1.40
38131;DHT22;23947;51.894;4.622;2023-03-01T07:21:11;-1.10;1.40
38131;DHT22;23947;51.894;4.622;2023-03-01T07:23:38;-1.00;1.40
38131;DHT22;23947;51.894;4.622;2023-03-01T07:26:03;-1.00;1.40
38131;DHT22;23947;51.894;4.622;2023-03-01T07:28:29;-0.90;1.40
38131;DHT22;23947;51.894;4.622;2023-03-01T07:31:01;-0.90;1.40
38131;DHT22;23947;51.894;4.622;2023-03-01T07:33:27;-0.80;1.40
38131;DHT22;23947;51.894;4.622;2023-03-01T07:35:57;-0.80;1.40
38131;DHT22;23947;51.894;4.622;2023-03-01T07:38:23;-0.70;1.40
38131;DHT22;23947;51.894;4.622;2023-03-01T07:40:48;-0.70;1.40
38131;DHT22;23947;51.894;4.622;2023-03-01T07:43:14;-0.60;1.40
38131;DHT22;23947;51.894;4.622;2023-03-01T07:45:40;-0.60;1.40
38131;DHT22;23947;51.894;4.622;2023-03-01T07:48:05;-0.60;1.40
38131;DHT22;23947;51.894;4.622;2023-03-01T07:50:31;-0.50;1.40
38131;DHT22;23947;51.894;4.622;2023-03-01T07:52:57;-0.50;1.40
38131;DHT22;23947;51.894;4.622;2023-03-01T07:55:22;-0.50;1.40
38131;DHT22;23947;51.894;4.622;2023-03-01T07:57:48;-0.40;1.40
38131;DHT22;23947;51.894;4.622;2023-03-01T08:00:14;-0.30;1.40
38131;DHT22;23947;51.894;4.622;2023-03-01T08:02:40;-0.30;1.40
38131;DHT22;23947;51.894;4.622;2023-03-01T08:05:07;-0.20;1.40
38131;DHT22;23947;51.894;4.622;2023-03-01T08:07:34;-0.20;1.40
38131;DHT22;23947;51.894;4.622;2023-03-01T08:09:59;-0.10;1.40
38131;DHT22;23947;51.894;4.622;2023-03-01T08:12:25;-0.10;1.40
38131;DHT22;23947;51.894;4.622;2023-03-01T08:14:53;0.00;1.40
38131;DHT22;23947;51.894;4.622;2023-03-01T08:17:18;0.10;1.40
38131;DHT22;23947;51.894;4.622;2023-03-01T08:19:44;0.20;1.40
38131;DHT22;23947;51.894;4.622;2023-03-01T08:22:10;0.30;1.40
38131;DHT22;23947;51.894;4.622;2023-03-01T08:24:36;0.30;1.40
38131;DHT22;23947;51.894;4.622;2023-03-01T08:27:01;0.30;1.40
38131;DHT22;23947;51.894;4.622;2023-03-01T08:29:30;0.40;1.40
38131;DHT22;23947;51.894;4.622;2023-03-01T08:31:55;0.50;1.40
38131;DHT22;23947;51.894;4.622;2023-03-01T08:34:21;0.60;1.40
38131;DHT22;23947;51.894;4.622;2023-03-01T08:36:47;0.70;1.40
38131;DHT22;23947;51.894;4.622;2023-03-01T08:39:15;0.70;1.40
38131;DHT22;23947;51.894;4.622;2023-03-01T08:41:41;0.70;1.40
38131;DHT22;23947;51.894;4.622;2023-03-01T08:44:08;0.80;1.40
38131;DHT22;23947;51.894;4.622;2023-03-01T08:46:39;0.80;1.40
38131;DHT22;23947;51.894;4.622;2023-03-01T08:49:11;0.90;1.40
38131;DHT22;23947;51.894;4.622;2023-03-01T08:51:37;1.00;1.40
38131;DHT22;23947;51.894;4.622;2023-03-01T08:54:04;1.00;1.40
38131;DHT22;23947;51.894;4.622;2023-03-01T08:56:31;1.10;1.40
38131;DHT22;23947;51.894;4.622;2023-03-01T08:58:56;1.10;1.40
38131;DHT22;23947;51.894;4.622;2023-03-01T09:01:22;1.20;1.40
38131;DHT22;23947;51.894;4.622;2023-03-01T09:03:48;1.30;1.40
38131;DHT22;23947;51.894;4.622;2023-03-01T09:06:14;1.30;1.40
38131;DHT22;23947;51.894;4.622;2023-03-01T09:08:44;1.40;1.40
38131;DHT22;23947;51.894;4.622;2023-03-01T09:11:12;1.50;1.40
38131;DHT22;23947;51.894;4.622;2023-03-01T09:13:38;1.60;1.40
38131;DHT22;23947;51.894;4.622;2023-03-01T09:16:08;1.60;1.40
38131;DHT22;23947;51.894;4.622;2023-03-01T09:18:34;1.70;1.40
38131;DHT22;23947;51.894;4.622;2023-03-01T09:21:10;1.80;1.40
38131;DHT22;23947;51.894;4.622;2023-03-01T09:23:40;1.90;1.40
38131;DHT22;23947;51.894;4.622;2023-03-01T09:26:07;1.90;1.40
38131;DHT22;23947;51.894;4.622;2023-03-01T09:28:34;2.00;1.40
38131;DHT22;23947;51.894;4.622;2023-03-01T09:31:01;2.10;1.40
38131;DHT22;23947;51.894;4.622;2023-03-01T09:33:31;2.20;1.40
38131;DHT22;23947;51.894;4.622;2023-03-01T09:36:05;2.30;1.40
38131;DHT22;23947;51.894;4.622;2023-03-01T09:38:31;2.50;1.40
38131;DHT22;23947;51.894;4.622;2023-03-01T09:40:57;2.60;1.40
38131;DHT22;23947;51.894;4.622;2023-03-01T09:46:04;2.70;1.40
38131;DHT22;23947;51.894;4.622;2023-03-01T09:48:42;2.70;1.40
38131;DHT22;23947;51.894;4.622;2023-03-01T09:51:14;2.80;1.40
38131;DHT22;23947;51.894;4.622;2023-03-01T09:53:43;2.80;1.40
38131;DHT22;23947;51.894;4.622;2023-03-01T09:56:30;2.90;1.40
38131;DHT22;23947;51.894;4.622;2023-03-01T09:59:15;3.00;1.40
38131;DHT22;23947;51.894;4.622;2023-03-01T10:02:11;3.00;1.40
38131;DHT22;23947;51.894;4.622;2023-03-01T10:07:21;3.30;1.40
38131;DHT22;23947;51.894;4.622;2023-03-01T10:09:52;3.30;1.40
38131;DHT22;23947;51.894;4.622;2023-03-01T10:12:25;3.30;1.40
38131;DHT22;23947;51.894;4.622;2023-03-01T10:15:06;3.40;1.40
38131;DHT22;23947;51.894;4.622;2023-03-01T10:20:18;3.50;1.40
38131;DHT22;23947;51.894;4.622;2023-03-01T10:22:45;3.60;1.40
38131;DHT22;23947;51.894;4.622;2023-03-01T10:25:20;3.60;1.40
38131;DHT22;23947;51.894;4.622;2023-03-01T10:27:55;3.70;1.40
38131;DHT22;23947;51.894;4.622;2023-03-01T10:30:41;3.80;1.40
38131;DHT22;23947;51.894;4.622;2023-03-01T10:33:24;3.90;1.40
38131;DHT22;23947;51.894;4.622;2023-03-01T10:35:50;4.00;1.40
38131;DHT22;23947;51.894;4.622;2023-03-01T10:38:17;4.00;1.40
38131;DHT22;23947;51.894;4.622;2023-03-01T10:40:58;4.00;1.40
38131;DHT22;23947;51.894;4.622;2023-03-01T10:43:40;4.00;1.40
38131;DHT22;23947;51.894;4.622;2023-03-01T10:46:30;4.10;1.40
38131;DHT22;23947;51.894;4.622;2023-03-01T10:49:17;4.20;1.40
38131;DHT22;23947;51.894;4.622;2023-03-01T10:51:46;4.20;1.40
38131;DHT22;23947;51.894;4.622;2023-03-01T10:56:51;4.30;1.40
38131;DHT22;23947;51.894;4.622;2023-03-01T11:02:17;4.30;1.40
38131;DHT22;23947;51.894;4.622;2023-03-01T11:07:26;4.60;1.40
38131;DHT22;23947;51.894;4.622;2023-03-01T11:09:52;4.60;1.40
38131;DHT22;23947;51.894;4.622;2023-03-01T11:12:18;4.60;1.40
38131;DHT22;23947;51.894;4.622;2023-03-01T11:14:49;4.60;1.40
38131;DHT22;23947;51.894;4.622;2023-03-01T11:17:21;4.70;1.40
38131;DHT22;23947;51.894;4.622;2023-03-01T11:22:34;4.80;1.40
38131;DHT22;23947;51.894;4.622;2023-03-01T11:25:01;4.80;1.40
38131;DHT22;23947;51.894;4.622;2023-03-01T11:27:38;4.80;1.40
38131;DHT22;23947;51.894;4.622;2023-03-01T11:33:17;5.00;1.40
38131;DHT22;23947;51.894;4.622;2023-03-01T11:38:34;5.10;1.40
38131;DHT22;23947;51.894;4.622;2023-03-01T11:43:45;5.20;1.40
38131;DHT22;23947;51.894;4.622;2023-03-01T11:57:17;5.30;1.40
38131;DHT22;23947;51.894;4.622;2023-03-01T12:00:07;5.40;1.40
38131;DHT22;23947;51.894;4.622;2023-03-01T12:03:25;5.50;1.40
38131;DHT22;23947;51.894;4.622;2023-03-01T12:14:55;7.10;1.40
38131;DHT22;23947;51.894;4.622;2023-03-01T12:20:23;8.00;1.40
38131;DHT22;23947;51.894;4.622;2023-03-01T12:25:48;9.20;1.40
38131;DHT22;23947;51.894;4.622;2023-03-01T12:28:36;9.50;1.40
38131;DHT22;23947;51.894;4.622;2023-03-01T12:33:50;10.50;1.40
38131;DHT22;23947;51.894;4.622;2023-03-01T12:37:00;10.80;1.40
38131;DHT22;23947;51.894;4.622;2023-03-01T12:42:35;10.70;1.40
38131;DHT22;23947;51.894;4.622;2023-03-01T12:50:46;11.30;1.40
38131;DHT22;23947;51.894;4.622;2023-03-01T12:53:36;11.50;1.40
38131;DHT22;23947;51.894;4.622;2023-03-01T12:56:07;11.70;1.40
38131;DHT22;23947;51.894;4.622;2023-03-01T13:11:05;12.50;1.40
38131;DHT22;23947;51.894;4.622;2023-03-01T13:15:37;12.50;1.40
38131;DHT22;23947;51.894;4.622;2023-03-01T13:20:46;12.50;1.40
38131;DHT22;23947;51.894;4.622;2023-03-01T13:31:54;12.50;1.40
38131;DHT22;23947;51.894;4.622;2023-03-01T13:34:02;12.30;1.40
38131;DHT22;23947;51.894;4.622;2023-03-01T13:41:55;10.90;1.40
38131;DHT22;23947;51.894;4.622;2023-03-01T13:44:27;10.60;1.40
38131;DHT22;23947;51.894;4.622;2023-03-01T13:46:58;10.50;1.40
38131;DHT22;23947;51.894;4.622;2023-03-01T13:49:28;10.60;1.40
38131;DHT22;23947;51.894;4.622;2023-03-01T13:51:54;10.40;1.40
38131;DHT22;23947;51.894;4.622;2023-03-01T13:54:27;10.10;1.40
38131;DHT22;23947;51.894;4.622;2023-03-01T13:56:55;10.10;1.40
38131;DHT22;23947;51.894;4.622;2023-03-01T13:59:22;9.80;1.40
38131;DHT22;23947;51.894;4.622;2023-03-01T14:01:53;9.50;1.40
38131;DHT22;23947;51.894;4.622;2023-03-01T14:04:27;9.40;1.40
38131;DHT22;23947;51.894;4.622;2023-03-01T14:07:16;9.20;1.40
38131;DHT22;23947;51.894;4.622;2023-03-01T14:09:45;9.00;1.40
38131;DHT22;23947;51.894;4.622;2023-03-01T14:17:52;8.70;1.40
38131;DHT22;23947;51.894;4.622;2023-03-01T14:20:26;8.50;1.40
38131;DHT22;23947;51.894;4.622;2023-03-01T14:23:23;8.60;1.40
38131;DHT22;23947;51.894;4.622;2023-03-01T14:25:57;8.60;1.40
38131;DHT22;23947;51.894;4.622;2023-03-01T14:28:28;8.60;1.40
38131;DHT22;23947;51.894;4.622;2023-03-01T14:30:59;8.50;1.40
38131;DHT22;23947;51.894;4.622;2023-03-01T14:33:35;8.60;1.40
38131;DHT22;23947;51.894;4.622;2023-03-01T14:36:07;8.70;1.40
38131;DHT22;23947;51.894;4.622;2023-03-01T14:38:47;8.90;1.40
38131;DHT22;23947;51.894;4.622;2023-03-01T14:41:24;9.20;1.40
38131;DHT22;23947;51.894;4.622;2023-03-01T14:43:57;9.40;1.40
38131;DHT22;23947;51.894;4.622;2023-03-01T14:46:30;9.70;1.40
38131;DHT22;23947;51.894;4.622;2023-03-01T14:49:19;10.10;1.40
38131;DHT22;23947;51.894;4.622;2023-03-01T14:52:00;10.10;1.40
38131;DHT22;23947;51.894;4.622;2023-03-01T14:54:35;9.80;1.40
38131;DHT22;23947;51.894;4.622;2023-03-01T14:57:03;9.60;1.40
38131;DHT22;23947;51.894;4.622;2023-03-01T14:59:29;9.50;1.40
38131;DHT22;23947;51.894;4.622;2023-03-01T15:01:58;9.20;1.40
38131;DHT22;23947;51.894;4.622;2023-03-01T15:04:26;9.00;1.40
38131;DHT22;23947;51.894;4.622;2023-03-01T15:06:57;8.70;1.40
38131;DHT22;23947;51.894;4.622;2023-03-01T15:09:32;8.60;1.40
38131;DHT22;23947;51.894;4.622;2023-03-01T15:11:59;8.40;1.40
38131;DHT22;23947;51.894;4.622;2023-03-01T15:14:44;8.30;1.40
38131;DHT22;23947;51.894;4.622;2023-03-01T15:17:34;8.20;1.40
38131;DHT22;23947;51.894;4.622;2023-03-01T15:20:03;8.00;1.40
38131;DHT22;23947;51.894;4.622;2023-03-01T15:22:29;8.00;1.40
38131;DHT22;23947;51.894;4.622;2023-03-01T15:24:55;8.00;1.40
38131;DHT22;23947;51.894;4.622;2023-03-01T15:27:23;7.90;1.40
38131;DHT22;23947;51.894;4.622;2023-03-01T15:30:00;7.80;1.40
38131;DHT22;23947;51.894;4.622;2023-03-01T15:32:32;7.80;1.40
38131;DHT22;23947;51.894;4.622;2023-03-01T15:34:59;7.70;1.40
38131;DHT22;23947;51.894;4.622;2023-03-01T15:37:46;7.70;1.40
38131;DHT22;23947;51.894;4.622;2023-03-01T15:40:25;7.60;1.40
38131;DHT22;23947;51.894;4.622;2023-03-01T15:42:57;7.50;1.40
38131;DHT22;23947;51.894;4.622;2023-03-01T15:45:27;7.50;1.40
38131;DHT22;23947;51.894;4.622;2023-03-01T15:47:54;7.40;1.40
38131;DHT22;23947;51.894;4.622;2023-03-01T15:52:49;7.40;1.40
38131;DHT22;23947;51.894;4.622;2023-03-01T15:55:24;7.30;1.40
38131;DHT22;23947;51.894;4.622;2023-03-01T15:58:17;7.30;1.40
38131;DHT22;23947;51.894;4.622;2023-03-01T16:00:45;7.30;1.40
38131;DHT22;23947;51.894;4.622;2023-03-01T16:03:11;7.30;1.40
38131;DHT22;23947;51.894;4.622;2023-03-01T16:05:37;7.20;1.40
38131;DHT22;23947;51.894;4.622;2023-03-01T16:08:05;7.10;1.40
38131;DHT22;23947;51.894;4.622;2023-03-01T16:10:35;7.10;1.40
38131;DHT22;23947;51.894;4.622;2023-03-01T16:13:01;7.00;1.40
38131;DHT22;23947;51.894;4.622;2023-03-01T16:15:32;7.00;1.40
38131;DHT22;23947;51.894;4.622;2023-03-01T16:18:00;7.00;1.40
38131;DHT22;23947;51.894;4.622;2023-03-01T16:20:26;7.00;1.40
38131;DHT22;23947;51.894;4.622;2023-03-01T16:22:52;7.00;1.40
38131;DHT22;23947;51.894;4.622;2023-03-01T16:25:19;7.00;1.40
38131;DHT22;23947;51.894;4.622;2023-03-01T16:27:48;7.00;1.40
38131;DHT22;23947;51.894;4.622;2023-03-01T16:30:16;6.90;1.40
38131;DHT22;23947;51.894;4.622;2023-03-01T16:32:44;6.90;1.40
38131;DHT22;23947;51.894;4.622;2023-03-01T16:35:12;6.90;1.40
38131;DHT22;23947;51.894;4.622;2023-03-01T16:37:39;6.80;1.40
38131;DHT22;23947;51.894;4.622;2023-03-01T16:40:06;6.80;1.40
38131;DHT22;23947;51.894;4.622;2023-03-01T16:42:37;6.70;1.40
38131;DHT22;23947;51.894;4.622;2023-03-01T16:45:03;6.70;1.40
38131;DHT22;23947;51.894;4.622;2023-03-01T16:47:29;6.60;1.40
38131;DHT22;23947;51.894;4.622;2023-03-01T16:49:55;6.50;1.40
38131;DHT22;23947;51.894;4.622;2023-03-01T16:52:21;6.50;1.40
38131;DHT22;23947;51.894;4.622;2023-03-01T16:54:47;6.40;1.40
38131;DHT22;23947;51.894;4.622;2023-03-01T16:57:13;6.30;1.40
38131;DHT22;23947;51.894;4.622;2023-03-01T16:59:39;6.30;1.40
38131;DHT22;23947;51.894;4.622;2023-03-01T17:02:08;6.20;1.40
38131;DHT22;23947;51.894;4.622;2023-03-01T17:04:35;6.20;1.40
38131;DHT22;23947;51.894;4.622;2023-03-01T17:07:01;6.10;1.40
38131;DHT22;23947;51.894;4.622;2023-03-01T17:09:27;6.10;1.40
38131;DHT22;23947;51.894;4.622;2023-03-01T17:11:52;6.00;1.40
38131;DHT22;23947;51.894;4.622;2023-03-01T17:14:20;6.00;1.40
38131;DHT22;23947;51.894;4.622;2023-03-01T17:16:45;5.90;1.40
38131;DHT22;23947;51.894;4.622;2023-03-01T17:19:11;5.80;1.40
38131;DHT22;23947;51.894;4.622;2023-03-01T17:21:43;5.80;1.40
38131;DHT22;23947;51.894;4.622;2023-03-01T17:24:09;5.60;1.40
38131;DHT22;23947;51.894;4.622;2023-03-01T17:26:35;5.60;1.40
38131;DHT22;23947;51.894;4.622;2023-03-01T17:29:02;5.50;1.40
38131;DHT22;23947;51.894;4.622;2023-03-01T17:31:30;5.50;1.40
38131;DHT22;23947;51.894;4.622;2023-03-01T17:33:56;5.40;1.40
38131;DHT22;23947;51.894;4.622;2023-03-01T17:36:22;5.40;1.40
38131;DHT22;23947;51.894;4.622;2023-03-01T17:38:48;5.30;1.40
38131;DHT22;23947;51.894;4.622;2023-03-01T17:41:14;5.20;1.40
38131;DHT22;23947;51.894;4.622;2023-03-01T17:43:46;5.20;1.40
38131;DHT22;23947;51.894;4.622;2023-03-01T17:46:11;5.10;1.40
38131;DHT22;23947;51.894;4.622;2023-03-01T17:48:37;5.20;1.40
38131;DHT22;23947;51.894;4.622;2023-03-01T17:51:07;5.20;1.40
38131;DHT22;23947;51.894;4.622;2023-03-01T17:53:34;5.10;1.40
38131;DHT22;23947;51.894;4.622;2023-03-01T17:56:02;5.00;1.40
38131;DHT22;23947;51.894;4.622;2023-03-01T17:58:28;4.90;1.40
38131;DHT22;23947;51.894;4.622;2023-03-01T18:00:53;4.80;1.40
38131;DHT22;23947;51.894;4.622;2023-03-01T18:03:19;4.80;1.40
38131;DHT22;23947;51.894;4.622;2023-03-01T18:05:46;4.70;1.40